Time;durP1;ratioP1;P1;durP2;ratioP2;P2;SDS_P1;SDS_P2;PMS_P1;PMS_P2;Temp;Humidity;BMP_temperature;BMP_pressure;BME280_temperature;BME280_humidity;BME280_pressure;Samples;Min_cycle;Max_cycle;Signal;HPM_P1;HPM_P2
2022/10/18 00:02:12;;;;;;;22.00;3.22;;;;;;;;;;5033400;28;20025;-60
2022/10/18 00:04:38;;;;;;;22.10;2.92;;;;;;;;;;5033490;28;20466;-60
2022/10/18 00:07:05;;;;;;;17.90;3.13;;;;;;;;;;5033387;28;20037;-60
2022/10/18 00:09:32;;;;;;;16.45;3.35;;;;;;;;;;5033265;28;20034;-59
2022/10/18 00:11:59;;;;;;;16.67;3.13;;;;;;;;;;5033190;28;20109;-60
2022/10/18 00:14:26;;;;;;;24.20;3.45;;;;;;;;;;5032789;28;20547;-61
2022/10/18 00:16:53;;;;;;;13.02;2.83;;;;;;;;;;5033033;28;20033;-59
2022/10/18 00:19:20;;;;;;;29.05;3.58;;;;;;;;;;5033161;28;20047;-60
2022/10/18 00:21:50;;;;;;;27.05;3.78;;;;;;;;;;5032865;28;20063;-60
2022/10/18 00:24:17;;;;;;;22.45;3.50;;;;;;;;;;5028902;28;20471;-60
2022/10/18 00:26:44;;;;;;;36.42;3.60;;;;;;;;;;5018014;28;20107;-61
2022/10/18 00:29:13;;;;;;;27.48;3.40;;;;;;;;;;5022330;28;20041;-60
2022/10/18 00:31:40;;;;;;;31.67;4.13;;;;;;;;;;5019701;28;20080;-59
2022/10/18 00:34:10;;;;;;;30.67;3.83;;;;;;;;;;5022041;28;20028;-59
2022/10/18 00:36:37;;;;;;;32.58;3.55;;;;;;;;;;5022606;28;20026;-60
2022/10/18 00:39:05;;;;;;;27.13;3.80;;;;;;;;;;5020105;28;20021;-61
2022/10/18 00:41:33;;;;;;;29.08;4.80;;;;;;;;;;5031480;28;20060;-61
2022/10/18 00:44:01;;;;;;;33.65;3.95;;;;;;;;;;5032004;28;20033;-59
2022/10/18 00:46:29;;;;;;;35.20;4.20;;;;;;;;;;5017853;28;20690;-61
2022/10/18 00:48:58;;;;;;;39.53;4.45;;;;;;;;;;5012187;28;20037;-60
2022/10/18 00:51:27;;;;;;;35.75;4.15;;;;;;;;;;5016998;28;20030;-59
2022/10/18 00:53:54;;;;;;;31.40;4.40;;;;;;;;;;5013096;28;20057;-62
2022/10/18 00:56:21;;;;;;;31.83;4.00;;;;;;;;;;5010637;28;20390;-61
2022/10/18 00:58:49;;;;;;;32.78;4.43;;;;;;;;;;5011264;28;20040;-61
2022/10/18 01:01:16;;;;;;;26.23;4.43;;;;;;;;;;5011293;28;20444;-61
2022/10/18 01:03:43;;;;;;;24.17;3.90;;;;;;;;;;5011904;28;20026;-59
2022/10/18 01:06:10;;;;;;;29.85;4.20;;;;;;;;;;5010737;28;20029;-61
2022/10/18 01:08:56;;;;;;;26.92;4.05;;;;;;;;;;5010011;28;20034;-59
2022/10/18 01:11:41;;;;;;;28.15;4.38;;;;;;;;;;5010145;28;20048;-60
2022/10/18 01:14:40;;;;;;;37.65;5.60;;;;;;;;;;5010346;28;20091;-62
2022/10/18 01:17:25;;;;;;;48.85;8.98;;;;;;;;;;4976973;28;20041;-59
2022/10/18 01:20:10;;;;;;;112.03;20.48;;;;;;;;;;5011084;28;20025;-60
2022/10/18 01:22:57;;;;;;;69.75;15.35;;;;;;;;;;5010722;28;20392;-62
2022/10/18 01:25:24;;;;;;;97.38;20.38;;;;;;;;;;5010656;28;20083;-60
2022/10/18 01:27:50;;;;;;;104.80;21.70;;;;;;;;;;5010442;28;20634;-60
2022/10/18 01:30:36;;;;;;;61.63;15.18;;;;;;;;;;5010528;28;20101;-60
2022/10/18 01:33:26;;;;;;;75.22;16.52;;;;;;;;;;5010625;28;20040;-60
2022/10/18 01:36:19;;;;;;;77.85;16.88;;;;;;;;;;4992446;28;20048;-60
2022/10/18 01:38:47;;;;;;;66.05;15.23;;;;;;;;;;5009388;28;20085;-62
2022/10/18 01:41:15;;;;;;;67.32;15.85;;;;;;;;;;5010518;28;20030;-60
2022/10/18 01:43:43;;;;;;;60.63;15.90;;;;;;;;;;5012230;28;20105;-60
2022/10/18 01:46:11;;;;;;;78.60;17.52;;;;;;;;;;5010388;28;20547;-60
2022/10/18 01:48:39;;;;;;;80.93;18.35;;;;;;;;;;5009993;28;20030;-60
2022/10/18 01:51:06;;;;;;;70.70;17.52;;;;;;;;;;5018146;28;20037;-65
2022/10/18 01:53:34;;;;;;;71.35;17.38;;;;;;;;;;5018965;28;20502;-61
2022/10/18 01:56:21;;;;;;;85.88;19.38;;;;;;;;;;5016747;28;20029;-60
2022/10/18 01:59:00;;;;;;;89.53;19.33;;;;;;;;;;5016684;28;20037;-59
2022/10/18 02:02:02;;;;;;;76.30;17.65;;;;;;;;;;5016622;28;20032;-57
2022/10/18 02:04:52;;;;;;;74.10;18.08;;;;;;;;;;4977949;28;20047;-60
2022/10/18 02:07:22;;;;;;;82.15;17.80;;;;;;;;;;5011844;28;20139;-60
2022/10/18 02:09:54;;;;;;;81.50;18.23;;;;;;;;;;5037470;28;20056;-60
2022/10/18 02:12:22;;;;;;;86.82;17.35;;;;;;;;;;5036789;28;20087;-60
2022/10/18 02:14:49;;;;;;;77.72;17.50;;;;;;;;;;5035579;28;20033;-60
2022/10/18 02:17:17;;;;;;;72.88;17.48;;;;;;;;;;5035876;28;20120;-60
2022/10/18 02:19:50;;;;;;;68.63;15.88;;;;;;;;;;5035679;28;20033;-61
2022/10/18 02:22:17;;;;;;;79.90;17.65;;;;;;;;;;5035112;28;20025;-60
2022/10/18 02:24:53;;;;;;;67.97;16.63;;;;;;;;;;5018049;28;20036;-60
2022/10/18 02:27:20;;;;;;;58.50;15.75;;;;;;;;;;5036792;28;20495;-62
2022/10/18 02:29:47;;;;;;;62.03;15.30;;;;;;;;;;5037544;28;20498;-59
2022/10/18 02:32:20;;;;;;;54.05;15.02;;;;;;;;;;5037293;28;20503;-60
2022/10/18 02:34:57;;;;;;;52.33;14.73;;;;;;;;;;5035677;28;20028;-59
2022/10/18 02:37:25;;;;;;;49.20;15.05;;;;;;;;;;5034224;28;20053;-60
2022/10/18 02:39:52;;;;;;;56.65;14.00;;;;;;;;;;5037381;28;20108;-59
2022/10/18 02:42:19;;;;;;;59.33;14.40;;;;;;;;;;5037269;28;20503;-60
2022/10/18 02:44:46;;;;;;;44.60;12.98;;;;;;;;;;5037212;28;20033;-61
2022/10/18 02:47:13;;;;;;;50.47;13.70;;;;;;;;;;5037067;28;20049;-59
2022/10/18 02:49:40;;;;;;;50.78;13.90;;;;;;;;;;5037333;28;20434;-62
2022/10/18 02:52:07;;;;;;;46.42;13.27;;;;;;;;;;5037305;28;20037;-61
2022/10/18 02:54:34;;;;;;;53.70;13.35;;;;;;;;;;5037182;28;20105;-61
2022/10/18 02:57:01;;;;;;;49.78;11.90;;;;;;;;;;5034625;28;20025;-59
2022/10/18 02:59:28;;;;;;;50.03;12.65;;;;;;;;;;5037358;28;20022;-60
2022/10/18 03:01:55;;;;;;;53.28;13.13;;;;;;;;;;5034397;28;20025;-59
2022/10/18 03:04:22;;;;;;;42.47;11.60;;;;;;;;;;5031522;28;20029;-62
2022/10/18 03:06:49;;;;;;;39.67;11.40;;;;;;;;;;5034110;28;20663;-61
2022/10/18 03:09:16;;;;;;;46.05;12.02;;;;;;;;;;5021383;28;20088;-59
2022/10/18 03:11:43;;;;;;;40.10;10.93;;;;;;;;;;5014887;28;20434;-59
2022/10/18 03:14:10;;;;;;;43.03;12.40;;;;;;;;;;5014681;28;20026;-59
2022/10/18 03:16:37;;;;;;;40.50;11.48;;;;;;;;;;5014692;28;20025;-59
2022/10/18 03:19:04;;;;;;;38.58;11.30;;;;;;;;;;5014439;28;20026;-59
2022/10/18 03:21:31;;;;;;;32.92;10.02;;;;;;;;;;5014542;28;20123;-59
2022/10/18 03:23:58;;;;;;;33.53;9.63;;;;;;;;;;5014493;28;20064;-59
2022/10/18 03:26:25;;;;;;;37.42;10.80;;;;;;;;;;5014879;28;20029;-59
2022/10/18 03:28:52;;;;;;;36.25;10.25;;;;;;;;;;5014396;28;20113;-59
2022/10/18 03:31:19;;;;;;;34.10;9.95;;;;;;;;;;5014519;28;20100;-59
2022/10/18 03:33:46;;;;;;;36.08;9.95;;;;;;;;;;4996640;28;20054;-59
2022/10/18 03:36:13;;;;;;;28.52;9.93;;;;;;;;;;5014601;28;20484;-59
2022/10/18 03:38:41;;;;;;;32.13;9.88;;;;;;;;;;5014311;28;20439;-59
2022/10/18 03:41:08;;;;;;;31.08;9.80;;;;;;;;;;5014178;28;20044;-59
2022/10/18 03:43:35;;;;;;;29.95;9.07;;;;;;;;;;5014180;28;20105;-59
2022/10/18 03:46:02;;;;;;;37.08;10.27;;;;;;;;;;5014139;28;20575;-59
2022/10/18 03:48:29;;;;;;;35.28;9.80;;;;;;;;;;5014009;28;20030;-59
2022/10/18 03:50:56;;;;;;;31.52;9.55;;;;;;;;;;5014139;28;20026;-59
2022/10/18 03:53:23;;;;;;;28.02;8.77;;;;;;;;;;4996237;28;20724;-59
2022/10/18 03:55:53;;;;;;;27.42;9.02;;;;;;;;;;5013968;28;20038;-59
2022/10/18 03:58:20;;;;;;;30.77;9.35;;;;;;;;;;5013977;28;20100;-59
2022/10/18 04:00:53;;;;;;;28.30;8.68;;;;;;;;;;5013763;28;20087;-59
2022/10/18 04:03:21;;;;;;;30.58;8.82;;;;;;;;;;5013529;28;20038;-59
2022/10/18 04:05:48;;;;;;;28.63;8.80;;;;;;;;;;5013823;28;20178;-59
2022/10/18 04:08:16;;;;;;;27.88;8.77;;;;;;;;;;5013806;28;20041;-59
2022/10/18 04:10:43;;;;;;;29.45;8.77;;;;;;;;;;5013821;28;20022;-59
2022/10/18 04:13:10;;;;;;;26.50;7.63;;;;;;;;;;5012392;28;20121;-59
2022/10/18 04:15:37;;;;;;;26.45;7.93;;;;;;;;;;5013639;28;20022;-59
2022/10/18 04:18:04;;;;;;;23.00;8.02;;;;;;;;;;5013643;28;20036;-59
2022/10/18 04:20:31;;;;;;;24.38;7.68;;;;;;;;;;5013594;28;20033;-59
2022/10/18 04:22:58;;;;;;;23.90;7.53;;;;;;;;;;5013476;28;20033;-59
2022/10/18 04:25:25;;;;;;;20.83;6.90;;;;;;;;;;5013402;28;20084;-59
2022/10/18 04:27:52;;;;;;;19.20;6.65;;;;;;;;;;5013356;28;20034;-59
2022/10/18 04:30:19;;;;;;;23.67;7.25;;;;;;;;;;5013388;28;20030;-59
2022/10/18 04:32:46;;;;;;;20.90;7.05;;;;;;;;;;5013270;28;20030;-59
2022/10/18 04:35:13;;;;;;;21.17;7.53;;;;;;;;;;5013186;28;20026;-59
2022/10/18 04:37:40;;;;;;;19.08;6.63;;;;;;;;;;5013207;28;20026;-59
2022/10/18 04:40:07;;;;;;;24.55;7.15;;;;;;;;;;5013170;28;20105;-59
2022/10/18 04:42:34;;;;;;;24.00;7.20;;;;;;;;;;4995466;28;20029;-59
2022/10/18 04:45:01;;;;;;;21.63;6.68;;;;;;;;;;5012931;28;20032;-59
2022/10/18 04:47:28;;;;;;;20.17;5.70;;;;;;;;;;5012766;28;20046;-59
2022/10/18 04:49:55;;;;;;;19.75;6.13;;;;;;;;;;5013067;28;20052;-59
2022/10/18 04:52:22;;;;;;;18.45;5.97;;;;;;;;;;5012887;28;20526;-59
2022/10/18 04:54:49;;;;;;;19.15;6.25;;;;;;;;;;5012893;28;20029;-59
2022/10/18 04:57:16;;;;;;;14.23;5.78;;;;;;;;;;5012879;28;20516;-59
2022/10/18 04:59:43;;;;;;;19.23;6.15;;;;;;;;;;5012915;28;20033;-59
2022/10/18 05:02:10;;;;;;;19.45;5.68;;;;;;;;;;5012730;28;20041;-59
2022/10/18 05:04:37;;;;;;;14.13;5.65;;;;;;;;;;5012778;28;20388;-59
2022/10/18 05:07:05;;;;;;;16.00;5.43;;;;;;;;;;5012593;28;20018;-59
2022/10/18 05:09:32;;;;;;;19.52;5.97;;;;;;;;;;5012513;28;20183;-59
2022/10/18 05:11:59;;;;;;;20.95;5.45;;;;;;;;;;5012690;28;20025;-59
2022/10/18 05:14:26;;;;;;;20.58;5.70;;;;;;;;;;5012647;28;20026;-59
2022/10/18 05:16:53;;;;;;;20.20;6.00;;;;;;;;;;5012425;28;20396;-59
2022/10/18 05:19:20;;;;;;;17.45;5.63;;;;;;;;;;5012533;28;20029;-59
2022/10/18 05:21:47;;;;;;;14.25;5.28;;;;;;;;;;5012471;28;20080;-59
2022/10/18 05:24:14;;;;;;;17.10;5.43;;;;;;;;;;5012029;28;20084;-59
2022/10/18 05:26:41;;;;;;;12.88;4.70;;;;;;;;;;5012486;28;20037;-59
2022/10/18 05:29:08;;;;;;;14.90;5.05;;;;;;;;;;5012479;28;20054;-59
2022/10/18 05:31:35;;;;;;;17.30;5.13;;;;;;;;;;5012358;28;20534;-59
2022/10/18 05:34:02;;;;;;;15.85;5.28;;;;;;;;;;5012272;28;20502;-59
2022/10/18 05:36:29;;;;;;;16.67;4.88;;;;;;;;;;5012301;28;20021;-59
2022/10/18 05:38:56;;;;;;;11.65;4.20;;;;;;;;;;5012339;28;20049;-59
2022/10/18 05:41:23;;;;;;;13.65;4.55;;;;;;;;;;5012326;28;20554;-59
2022/10/18 05:43:50;;;;;;;11.68;4.90;;;;;;;;;;5012175;28;20038;-59
2022/10/18 05:46:17;;;;;;;14.60;5.15;;;;;;;;;;5011919;28;20029;-59
2022/10/18 05:48:44;;;;;;;12.93;5.15;;;;;;;;;;5012096;28;20037;-59
2022/10/18 05:51:11;;;;;;;12.55;4.05;;;;;;;;;;5012223;28;20037;-59
2022/10/18 05:53:38;;;;;;;11.13;4.03;;;;;;;;;;5012074;28;20044;-59
2022/10/18 05:56:06;;;;;;;10.20;3.90;;;;;;;;;;5012005;28;20034;-59
2022/10/18 05:58:33;;;;;;;12.82;4.43;;;;;;;;;;5012172;28;20113;-59
2022/10/18 06:01:01;;;;;;;12.50;4.60;;;;;;;;;;5011215;28;20144;-59
2022/10/18 06:03:29;;;;;;;8.57;3.42;;;;;;;;;;5031103;28;20585;-59
2022/10/18 06:06:07;;;;;;;14.05;4.15;;;;;;;;;;5031513;28;20041;-61
2022/10/18 06:08:35;;;;;;;12.32;4.10;;;;;;;;;;5031695;28;20036;-61
2022/10/18 06:11:09;;;;;;;10.75;3.80;;;;;;;;;;5031790;28;20388;-61
2022/10/18 06:13:40;;;;;;;11.02;3.75;;;;;;;;;;5031657;28;20076;-61
2022/10/18 06:16:07;;;;;;;10.18;3.85;;;;;;;;;;5031735;28;20026;-61
2022/10/18 06:18:34;;;;;;;12.20;3.97;;;;;;;;;;5031553;28;20037;-61
2022/10/18 06:21:01;;;;;;;13.75;4.00;;;;;;;;;;5031723;28;20502;-61
2022/10/18 06:23:28;;;;;;;12.63;3.97;;;;;;;;;;5031607;28;20026;-61
2022/10/18 06:25:59;;;;;;;10.18;3.70;;;;;;;;;;5031716;28;20051;-61
2022/10/18 06:28:27;;;;;;;10.57;3.50;;;;;;;;;;5031575;28;20049;-61
2022/10/18 06:30:53;;;;;;;9.60;3.72;;;;;;;;;;5031518;28;20151;-61
2022/10/18 06:33:20;;;;;;;10.00;3.42;;;;;;;;;;5031498;28;20033;-61
2022/10/18 06:35:57;;;;;;;8.05;3.03;;;;;;;;;;5031640;28;20545;-61
2022/10/18 06:38:24;;;;;;;10.82;3.22;;;;;;;;;;5035375;28;20041;-61
2022/10/18 06:40:51;;;;;;;8.90;3.50;;;;;;;;;;5035262;28;20098;-61
2022/10/18 06:43:18;;;;;;;9.18;3.05;;;;;;;;;;5034991;28;20395;-61
2022/10/18 06:45:45;;;;;;;10.38;3.00;;;;;;;;;;5035216;28;20029;-61
2022/10/18 06:48:12;;;;;;;8.68;3.30;;;;;;;;;;5034770;28;20688;-61
2022/10/18 06:50:39;;;;;;;7.47;3.13;;;;;;;;;;5035068;28;20037;-61
2022/10/18 06:53:07;;;;;;;7.72;2.42;;;;;;;;;;5034963;28;20471;-61
2022/10/18 06:55:34;;;;;;;9.05;3.20;;;;;;;;;;5035003;28;20033;-61
2022/10/18 06:58:01;;;;;;;8.88;3.17;;;;;;;;;;5034968;28;20029;-62
2022/10/18 07:00:28;;;;;;;7.55;2.58;;;;;;;;;;5034885;28;20502;-61
2022/10/18 07:02:57;;;;;;;8.85;2.85;;;;;;;;;;5034803;28;20040;-61
2022/10/18 07:05:24;;;;;;;5.82;2.60;;;;;;;;;;5034673;28;20037;-61
2022/10/18 07:07:51;;;;;;;6.05;2.65;;;;;;;;;;5034740;28;20478;-61
2022/10/18 07:10:17;;;;;;;7.30;2.53;;;;;;;;;;5034838;28;20056;-61
2022/10/18 07:12:44;;;;;;;6.65;2.67;;;;;;;;;;5034634;28;20033;-59
2022/10/18 07:15:11;;;;;;;7.43;2.40;;;;;;;;;;5034581;28;20391;-59
2022/10/18 07:17:38;;;;;;;6.90;2.80;;;;;;;;;;5034614;28;20029;-59
2022/10/18 07:20:05;;;;;;;6.97;2.47;;;;;;;;;;5034614;28;20029;-59
2022/10/18 07:22:32;;;;;;;6.53;2.58;;;;;;;;;;5034495;28;20502;-59
2022/10/18 07:24:59;;;;;;;8.07;2.80;;;;;;;;;;5034459;28;20033;-59
2022/10/18 07:27:27;;;;;;;6.25;2.33;;;;;;;;;;5034298;28;20037;-59
2022/10/18 07:29:53;;;;;;;6.88;2.65;;;;;;;;;;5034307;28;20041;-59
2022/10/18 07:32:20;;;;;;;4.97;2.10;;;;;;;;;;5034297;28;20075;-60
2022/10/18 07:34:56;;;;;;;4.50;1.97;;;;;;;;;;5118247;22;20029;31
2022/10/18 07:37:23;;;;;;;5.68;2.30;;;;;;;;;;4958259;28;20271;-63
2022/10/18 07:39:50;;;;;;;4.82;2.17;;;;;;;;;;4974986;28;20033;-64
2022/10/18 07:42:17;;;;;;;7.45;2.53;;;;;;;;;;4975319;28;20050;-63
2022/10/18 07:44:44;;;;;;;7.22;2.28;;;;;;;;;;4975356;28;20037;-62
2022/10/18 07:47:11;;;;;;;7.03;2.13;;;;;;;;;;4974683;28;20113;-63
2022/10/18 07:49:38;;;;;;;5.20;2.35;;;;;;;;;;4975214;28;20057;-63
2022/10/18 07:52:05;;;;;;;5.70;2.33;;;;;;;;;;4975168;28;20031;-62
2022/10/18 07:54:32;;;;;;;6.80;2.63;;;;;;;;;;4975056;28;20026;-63
2022/10/18 07:56:59;;;;;;;5.65;2.33;;;;;;;;;;4974732;28;20029;-64
2022/10/18 07:59:26;;;;;;;4.22;2.00;;;;;;;;;;4975068;28;20531;-64
2022/10/18 08:01:53;;;;;;;4.63;1.80;;;;;;;;;;4975001;28;20030;-64
2022/10/18 08:04:20;;;;;;;6.00;2.00;;;;;;;;;;4974849;28;20467;-63
2022/10/18 08:06:47;;;;;;;4.55;1.70;;;;;;;;;;4974677;28;20030;-63
2022/10/18 08:09:14;;;;;;;6.55;1.92;;;;;;;;;;4974626;28;20038;-62
2022/10/18 08:11:41;;;;;;;4.47;2.03;;;;;;;;;;4974867;28;20023;-62
2022/10/18 08:14:08;;;;;;;5.97;2.08;;;;;;;;;;4974732;28;20042;-63
2022/10/18 08:16:35;;;;;;;5.05;2.00;;;;;;;;;;4974591;28;20061;-63
2022/10/18 08:19:02;;;;;;;4.22;1.80;;;;;;;;;;4974698;28;20134;-63
2022/10/18 08:21:28;;;;;;;6.50;1.95;;;;;;;;;;4974579;28;20038;-63
2022/10/18 08:23:55;;;;;;;3.55;1.80;;;;;;;;;;4974456;28;20098;-63
2022/10/18 08:26:23;;;;;;;3.65;1.50;;;;;;;;;;4974408;28;20037;-63
2022/10/18 08:28:50;;;;;;;5.43;2.42;;;;;;;;;;4974390;28;20071;-63
2022/10/18 08:31:18;;;;;;;5.78;2.00;;;;;;;;;;4973143;28;20026;-62
2022/10/18 08:33:46;;;;;;;5.80;1.77;;;;;;;;;;4974319;28;20516;-62
2022/10/18 08:36:14;;;;;;;5.82;2.05;;;;;;;;;;4994340;28;20046;-63
2022/10/18 08:38:42;;;;;;;4.03;1.55;;;;;;;;;;5013172;28;20033;-62
2022/10/18 08:41:20;;;;;;;4.30;1.65;;;;;;;;;;5013320;28;20030;-63
2022/10/18 08:43:50;;;;;;;5.90;1.67;;;;;;;;;;5013724;28;20034;-63
2022/10/18 08:46:17;;;;;;;4.72;1.98;;;;;;;;;;5013045;28;20029;-62
2022/10/18 08:48:47;;;;;;;5.65;1.75;;;;;;;;;;5012949;28;20070;-63
2022/10/18 08:51:27;;;;;;;4.50;1.65;;;;;;;;;;5012967;28;20040;-63
2022/10/18 08:53:55;;;;;;;5.72;1.55;;;;;;;;;;5013020;28;20026;-62
2022/10/18 08:56:23;;;;;;;4.20;2.05;;;;;;;;;;5012822;28;20487;-62
2022/10/18 08:58:50;;;;;;;6.65;1.80;;;;;;;;;;5012215;28;20399;-61
2022/10/18 09:01:25;;;;;;;5.57;2.25;;;;;;;;;;5012748;28;20387;-63
2022/10/18 09:04:06;;;;;;;5.40;1.63;;;;;;;;;;5012849;28;20029;-62
2022/10/18 09:06:33;;;;;;;4.68;1.65;;;;;;;;;;5012705;28;20034;-62
2022/10/18 09:09:11;;;;;;;5.40;1.35;;;;;;;;;;5012672;28;20049;-62
2022/10/18 09:11:51;;;;;;;4.47;1.77;;;;;;;;;;5012725;28;20022;-62
2022/10/18 09:14:26;;;;;;;11.73;1.92;;;;;;;;;;5012674;28;20101;-62
2022/10/18 09:17:16;;;;;;;4.95;1.55;;;;;;;;;;5012233;28;20037;-64
2022/10/18 09:20:06;;;;;;;4.88;1.75;;;;;;;;;;4976086;28;20041;-62
2022/10/18 09:22:53;;;;;;;3.95;1.55;;;;;;;;;;5012301;28;20033;-62
2022/10/18 09:25:22;;;;;;;4.97;1.40;;;;;;;;;;5012264;28;20045;-62
2022/10/18 09:27:58;;;;;;;5.15;1.60;;;;;;;;;;5005471;28;20126;-64
2022/10/18 09:30:38;;;;;;;4.32;1.77;;;;;;;;;;4996594;28;20053;-64
2022/10/18 09:33:05;;;;;;;4.03;1.27;;;;;;;;;;4992849;28;20109;-64
2022/10/18 09:35:51;;;;;;;6.55;1.55;;;;;;;;;;4991275;28;20047;-63
2022/10/18 09:38:21;;;;;;;3.03;1.30;;;;;;;;;;4992431;28;20030;-62
2022/10/18 09:41:11;;;;;;;6.85;1.60;;;;;;;;;;4992074;28;20034;-62
2022/10/18 09:43:48;;;;;;;3.78;1.52;;;;;;;;;;4982212;28;20073;-62
2022/10/18 09:46:16;;;;;;;6.22;1.60;;;;;;;;;;4992167;28;20038;-62
2022/10/18 09:48:48;;;;;;;3.72;1.38;;;;;;;;;;4991884;28;20503;-64
2022/10/18 09:51:23;;;;;;;4.22;1.35;;;;;;;;;;4992449;28;20034;-62
2022/10/18 09:53:50;;;;;;;5.20;1.45;;;;;;;;;;4992497;28;20034;-62
2022/10/18 09:56:40;;;;;;;3.88;1.33;;;;;;;;;;4992241;28;20069;-62
2022/10/18 09:59:16;;;;;;;4.60;1.50;;;;;;;;;;4964940;28;20500;-64
2022/10/18 10:01:43;;;;;;;5.22;1.60;;;;;;;;;;4992418;28;20026;-64
2022/10/18 10:04:11;;;;;;;3.50;1.33;;;;;;;;;;4992315;28;20038;-64
2022/10/18 10:06:49;;;;;;;5.80;1.60;;;;;;;;;;4992127;28;20030;-64
2022/10/18 10:09:17;;;;;;;4.50;1.40;;;;;;;;;;4991557;28;20050;-62
2022/10/18 10:11:49;;;;;;;4.68;1.50;;;;;;;;;;4995021;28;20034;-63
2022/10/18 10:14:21;;;;;;;5.38;1.42;;;;;;;;;;4995819;28;20436;-64
2022/10/18 10:16:49;;;;;;;6.35;1.70;;;;;;;;;;4995805;28;20109;-62
2022/10/18 10:19:20;;;;;;;4.32;1.55;;;;;;;;;;4987952;28;20035;-64
2022/10/18 10:21:49;;;;;;;5.07;1.60;;;;;;;;;;4976634;28;20058;-64
2022/10/18 10:24:26;;;;;;;10.60;2.13;;;;;;;;;;4976569;28;20129;-65
2022/10/18 10:26:59;;;;;;;5.53;1.60;;;;;;;;;;4976558;28;20027;-65
2022/10/18 10:29:46;;;;;;;6.05;1.42;;;;;;;;;;4976625;28;20502;-65
2022/10/18 10:32:20;;;;;;;5.72;1.45;;;;;;;;;;4976494;28;20027;-65
2022/10/18 10:34:50;;;;;;;10.75;1.98;;;;;;;;;;4976394;28;20031;-65
2022/10/18 10:37:24;;;;;;;8.50;1.60;;;;;;;;;;4976237;28;20062;-64
2022/10/18 10:40:09;;;;;;;4.78;1.50;;;;;;;;;;4987284;28;20113;-62
2022/10/18 10:42:48;;;;;;;6.85;1.77;;;;;;;;;;5001551;28;20026;-62
2022/10/18 10:45:15;;;;;;;5.03;1.90;;;;;;;;;;4995719;28;20443;-62
2022/10/18 10:47:42;;;;;;;5.47;1.65;;;;;;;;;;4995674;28;20046;-62
2022/10/18 10:50:12;;;;;;;7.13;1.63;;;;;;;;;;4995661;28;20034;-62
2022/10/18 10:52:42;;;;;;;6.65;1.50;;;;;;;;;;4995664;28;20488;-62
2022/10/18 10:55:18;;;;;;;8.32;1.60;;;;;;;;;;4995386;28;20432;-62
2022/10/18 10:57:47;;;;;;;10.15;1.70;;;;;;;;;;4995408;28;20042;-62
2022/10/18 11:00:32;;;;;;;6.47;1.42;;;;;;;;;;4995502;28;20031;-62
2022/10/18 11:03:14;;;;;;;5.55;1.40;;;;;;;;;;4994995;28;20039;-64
2022/10/18 11:05:48;;;;;;;11.68;1.77;;;;;;;;;;4995320;28;20034;-63
2022/10/18 11:08:26;;;;;;;5.72;1.63;;;;;;;;;;4995232;28;20515;-63
2022/10/18 11:10:53;;;;;;;7.20;1.90;;;;;;;;;;4995369;28;20041;-63
2022/10/18 11:13:29;;;;;;;10.77;1.90;;;;;;;;;;4995234;28;20069;-63
2022/10/18 11:16:07;;;;;;;90.93;5.93;;;;;;;;;;4995030;28;20034;-64
2022/10/18 11:18:36;;;;;;;30.02;3.53;;;;;;;;;;4987140;28;20054;-62
2022/10/18 11:21:26;;;;;;;209.95;7.75;;;;;;;;;;4974125;28;20027;-63
2022/10/18 11:23:54;;;;;;;552.20;49.85;;;;;;;;;;4969414;28;20057;-60
2022/10/18 11:26:42;;;;;;;282.05;26.15;;;;;;;;;;4974179;28;20169;-63
2022/10/18 11:29:23;;;;;;;175.70;18.08;;;;;;;;;;4975371;28;20035;-63
2022/10/18 11:32:02;;;;;;;127.07;14.70;;;;;;;;;;4973298;28;20034;-62
2022/10/18 11:34:38;;;;;;;114.45;15.27;;;;;;;;;;4974316;28;20081;-63
2022/10/18 11:37:19;;;;;;;111.00;10.80;;;;;;;;;;4975143;28;20047;-60
2022/10/18 11:39:55;;;;;;;67.97;8.63;;;;;;;;;;4975234;28;20031;-60
2022/10/18 11:42:25;;;;;;;58.70;7.85;;;;;;;;;;4974463;28;20035;-61
2022/10/18 11:45:07;;;;;;;124.57;10.13;;;;;;;;;;4974368;28;20030;-62
2022/10/18 11:47:54;;;;;;;80.15;9.55;;;;;;;;;;4975108;28;20043;-62
2022/10/18 11:50:30;;;;;;;73.10;10.00;;;;;;;;;;4973739;28;20469;-62
2022/10/18 11:53:03;;;;;;;64.43;9.45;;;;;;;;;;4974358;28;20054;-62
2022/10/18 11:55:39;;;;;;;59.90;10.23;;;;;;;;;;4986355;28;20452;-63
2022/10/18 11:58:24;;;;;;;53.85;8.77;;;;;;;;;;4994400;28;20034;-62
2022/10/18 12:00:58;;;;;;;77.45;11.30;;;;;;;;;;4994242;28;20034;-62
2022/10/18 12:03:28;;;;;;;60.53;10.30;;;;;;;;;;4994377;28;20023;-62
2022/10/18 12:05:57;;;;;;;64.57;9.68;;;;;;;;;;4994076;28;20507;-63
2022/10/18 12:08:24;;;;;;;57.78;8.75;;;;;;;;;;4994141;28;20820;-63
2022/10/18 12:10:52;;;;;;;62.33;8.63;;;;;;;;;;4994102;28;20132;-63
2022/10/18 12:13:25;;;;;;;57.78;7.68;;;;;;;;;;4994162;28;20030;-63
2022/10/18 12:15:53;;;;;;;53.97;8.27;;;;;;;;;;4993686;28;20488;-60
2022/10/18 12:18:21;;;;;;;47.13;7.10;;;;;;;;;;4993715;28;20030;-61
2022/10/18 12:20:49;;;;;;;43.85;6.78;;;;;;;;;;4993806;28;20034;-60
2022/10/18 12:23:33;;;;;;;43.08;7.50;;;;;;;;;;4993870;28;20034;-60
2022/10/18 12:26:04;;;;;;;50.60;7.15;;;;;;;;;;4993670;28;20038;-60
2022/10/18 12:28:31;;;;;;;38.70;6.47;;;;;;;;;;4993593;28;20042;-60
2022/10/18 12:31:01;;;;;;;32.28;5.30;;;;;;;;;;4992437;28;20510;-60
2022/10/18 12:33:31;;;;;;;32.28;5.97;;;;;;;;;;4993179;28;20117;-60
2022/10/18 12:36:16;;;;;;;27.83;5.03;;;;;;;;;;4992818;28;20046;-60
2022/10/18 12:38:45;;;;;;;40.33;8.00;;;;;;;;;;4993569;28;20053;-59
2022/10/18 12:41:23;;;;;;;44.53;7.47;;;;;;;;;;4993359;28;20022;-60
2022/10/18 12:43:54;;;;;;;42.33;7.05;;;;;;;;;;4993597;28;20038;-60
2022/10/18 12:46:21;;;;;;;42.45;6.95;;;;;;;;;;4993346;28;20062;-63
2022/10/18 12:49:02;;;;;;;35.38;6.55;;;;;;;;;;4993499;28;20030;-60
2022/10/18 12:51:29;;;;;;;33.67;6.88;;;;;;;;;;4992149;28;20412;-60
2022/10/18 12:54:02;;;;;;;34.63;6.50;;;;;;;;;;4993781;28;20034;-60
2022/10/18 12:56:29;;;;;;;31.60;5.82;;;;;;;;;;4993243;28;20117;-60
2022/10/18 12:59:14;;;;;;;27.23;5.65;;;;;;;;;;4993616;28;20435;-60
2022/10/18 13:01:50;;;;;;;30.08;6.22;;;;;;;;;;4992532;28;20030;-61
2022/10/18 13:04:31;;;;;;;29.90;5.50;;;;;;;;;;4992909;28;20081;-62
2022/10/18 13:07:04;;;;;;;27.70;4.97;;;;;;;;;;4991647;28;20038;-62
2022/10/18 13:09:33;;;;;;;28.58;5.05;;;;;;;;;;4990706;28;20492;-63
2022/10/18 13:12:09;;;;;;;22.63;3.83;;;;;;;;;;4992476;28;20084;-63
2022/10/18 13:14:55;;;;;;;24.48;4.13;;;;;;;;;;4991280;28;20053;-61
2022/10/18 13:17:25;;;;;;;21.60;4.53;;;;;;;;;;4991754;28;20089;-61
2022/10/18 13:19:54;;;;;;;21.70;4.90;;;;;;;;;;4992736;28;20392;-62
2022/10/18 13:22:24;;;;;;;25.77;4.70;;;;;;;;;;4992886;28;20038;-64
2022/10/18 13:25:07;;;;;;;27.80;4.75;;;;;;;;;;4992865;28;20034;-64
2022/10/18 13:27:44;;;;;;;30.10;4.63;;;;;;;;;;4992666;28;20047;-64
2022/10/18 13:30:11;;;;;;;27.98;4.28;;;;;;;;;;4992990;28;20100;-63
2022/10/18 13:32:56;;;;;;;30.40;4.78;;;;;;;;;;4992853;28;20025;-63
2022/10/18 13:35:38;;;;;;;33.95;4.72;;;;;;;;;;4992690;28;20523;-63
2022/10/18 13:38:16;;;;;;;28.00;3.63;;;;;;;;;;4992736;28;20058;-63
2022/10/18 13:40:43;;;;;;;31.08;5.05;;;;;;;;;;4992825;28;20031;-63
2022/10/18 13:43:28;;;;;;;22.15;3.60;;;;;;;;;;4992931;28;20117;-63
2022/10/18 13:45:55;;;;;;;31.02;4.10;;;;;;;;;;4992279;28;20038;-63
2022/10/18 13:48:31;;;;;;;33.22;4.13;;;;;;;;;;4974966;28;20038;-63
2022/10/18 13:51:01;;;;;;;32.70;4.95;;;;;;;;;;4992562;28;20022;-62
2022/10/18 13:53:28;;;;;;;23.10;3.85;;;;;;;;;;4992574;28;20052;-63
2022/10/18 13:56:00;;;;;;;25.63;4.20;;;;;;;;;;4992358;28;20084;-64
2022/10/18 13:58:30;;;;;;;31.23;4.17;;;;;;;;;;4992658;28;20042;-62
2022/10/18 14:01:15;;;;;;;21.75;4.47;;;;;;;;;;4992554;28;20262;-62
2022/10/18 14:03:51;;;;;;;27.60;4.05;;;;;;;;;;4992561;28;20025;-63
2022/10/18 14:06:21;;;;;;;23.50;3.80;;;;;;;;;;4992293;28;20042;-63
2022/10/18 14:08:48;;;;;;;25.42;4.45;;;;;;;;;;4992164;28;20038;-62
2022/10/18 14:11:33;;;;;;;20.95;4.00;;;;;;;;;;4992623;28;20034;-62
2022/10/18 14:14:03;;;;;;;30.75;4.85;;;;;;;;;;4992242;28;20033;-62
2022/10/18 14:16:34;;;;;;;24.52;4.03;;;;;;;;;;4992067;28;20073;-64
2022/10/18 14:19:08;;;;;;;24.75;3.50;;;;;;;;;;4992438;28;20092;-62
2022/10/18 14:21:37;;;;;;;23.02;4.35;;;;;;;;;;4992421;28;20029;-62
2022/10/18 14:24:12;;;;;;;25.13;3.55;;;;;;;;;;4992307;28;20049;-63
2022/10/18 14:26:39;;;;;;;24.83;3.95;;;;;;;;;;4991799;28;20117;-61
2022/10/18 14:29:07;;;;;;;20.67;3.35;;;;;;;;;;4992218;28;20558;-61
2022/10/18 14:31:34;;;;;;;21.60;3.40;;;;;;;;;;4992252;28;20499;-61
2022/10/18 14:34:01;;;;;;;19.02;3.72;;;;;;;;;;4992179;28;20068;-61
2022/10/18 14:36:36;;;;;;;23.70;4.50;;;;;;;;;;4991856;28;20087;-61
2022/10/18 14:39:06;;;;;;;28.42;6.80;;;;;;;;;;4992184;28;20026;-61
2022/10/18 14:41:34;;;;;;;27.50;6.50;;;;;;;;;;4992178;28;20022;-61
2022/10/18 14:44:18;;;;;;;30.33;8.23;;;;;;;;;;4992015;28;20034;-61
2022/10/18 14:46:46;;;;;;;31.35;10.85;;;;;;;;;;4991849;28;20038;-61
2022/10/18 14:49:13;;;;;;;40.42;12.55;;;;;;;;;;4992294;28;20045;-61
2022/10/18 14:51:42;;;;;;;38.97;11.82;;;;;;;;;;4992416;28;20480;-61
2022/10/18 14:54:17;;;;;;;47.25;13.18;;;;;;;;;;4992291;28;20030;-61